Gizmo — WDE9010 — position and weather

sailwx.info

Track history (hours):
 
Tides and Currents Weather Stations Pressure Air Temp Water Temp Dewpoint Dewpoint Depression Visibility Wind Speed Wind Dir Waves Ship Positions

Gizmo

Owner: Ellison, Bennett, Camden, ME. More information available from US FCC via Universal Licensing System and Coast Guard Vessel Documentation Center.

Last reported at 2015-Jun-11 18:33 UTC. Time now 2015-Jul-05 04:24 UTC.
Position N 43°53' W 069°19'.
Warning: this ship's position is 23 days out of date.

Length 12 m; draft 1.4 m.

Type: Pleasure craft. MMSI: 367412350.

Date/timePositionNaut miles runAvg speedWind from/ knotsBaromVisibWave heightAir tempDewpointWater temp
2015-Jun-11 18:33N 43°53' W 069°19'9 8.7
2015-Jun-11 17:33N 43°50' W 069°30'9 8.7
2015-Jun-11 16:33N 43°45' W 069°40'9 9.2
2015-Jun-11 15:33N 43°38' W 069°49'11 9.2
2015-Jun-11 14:19N 43°30' W 069°59'7 9.2
2015-Jun-11 13:32N 43°24' W 070°06'9 9.1
2015-Jun-11 12:33N 43°17' W 070°14'9 9.1
2015-Jun-11 11:33N 43°10' W 070°21'9 9.0
2015-Jun-11 10:33N 43°04' W 070°30'7 7.2
2015-Jun-11 09:33N 42°59' W 070°37'0 0.0
2015-Jun-11 08:33N 42°59' W 070°37'0 0.0
2015-Jun-11 07:33N 42°59' W 070°37'0 0.0
2015-Jun-11 06:33N 42°59' W 070°37'0 0.0
2015-Jun-11 05:33N 42°59' W 070°37'0 0.0
2015-Jun-11 04:33N 42°59' W 070°37'0 0.0
2015-Jun-11 03:33N 42°59' W 070°37'0 0.0
2015-Jun-11 02:33N 42°59' W 070°37'0 0.0
2015-Jun-11 01:33N 42°59' W 070°37'0 0.0
2015-Jun-10 20:33N 42°59' W 070°37'0 0.2
2015-Jun-10 19:33N 42°59' W 070°37'8 8.0
2015-Jun-10 18:33N 42°51' W 070°38'8 8.3
2015-Jun-10 17:33N 42°43' W 070°40'6 5.7
2015-Jun-10 16:33N 42°37' W 070°41'1 1.1
2015-Jun-10 15:32N 42°37' W 070°39'15 7.5
2015-Jun-10 13:33N 42°22' W 070°41'8 8.1
2015-Jun-10 12:33N 42°14' W 070°42'16 1.3
2015-Jun-10 00:23N 41°58' W 070°40'0 0.0
2015-Jun-09 23:32N 41°58' W 070°40'0 0.0
2015-Jun-09 22:32N 41°58' W 070°40'0 0.0
2015-Jun-09 21:32N 41°58' W 070°40'0 0.0
2015-Jun-09 20:32N 41°58' W 070°40'0 0.0
2015-Jun-09 19:32N 41°58' W 070°40'0 0.0
2015-Jun-09 18:32N 41°58' W 070°40'0 0.0
2015-Jun-09 17:32N 41°58' W 070°40'0 0.0
2015-Jun-09 16:32N 41°58' W 070°40'13 0.5
2015-Jun-08 15:26N 41°45' W 070°35'26 8.3
2015-Jun-08 12:18N 41°27' W 071°01'7 8.1
2015-Jun-08 11:25N 41°26' W 071°10'7 8.1
2015-Jun-08 10:33N 41°24' W 071°19'8 8.2
2015-Jun-08 09:33N 41°21' W 071°30'1 0.5
2015-Jun-08 08:31N 41°22' W 071°30'0 0.0
2015-Jun-08 07:31N 41°22' W 071°30'0 0.0
2015-Jun-08 06:31N 41°22' W 071°30'0 0.0
2015-Jun-08 05:10N 41°22' W 071°30'0 0.0
2015-Jun-08 04:31N 41°22' W 071°30'0 0.0
2015-Jun-08 03:31N 41°22' W 071°30'0 0.0
2015-Jun-08 02:28N 41°22' W 071°30'0 0.0
2015-Jun-08 01:31N 41°22' W 071°30'0 0.0
2015-Jun-08 00:31N 41°22' W 071°30'0 0.0
2015-Jun-07 23:31N 41°22' W 071°30'7 7.4
2015-Jun-07 22:33N 41°20' W 071°40'9 8.9
2015-Jun-07 21:33N 41°18' W 071°51'9 9.4
2015-Jun-07 20:33N 41°17' W 072°04'8 8.1
2015-Jun-07 19:33N 41°15' W 072°14'6 5.7
2015-Jun-07 18:33N 41°18' W 072°21'4 3.6
2015-Jun-07 17:32N 41°21' W 072°23'0 0.0
2015-Jun-07 16:32N 41°21' W 072°23'0 0.0
2015-Jun-07 15:32N 41°21' W 072°23'0 0.0
2015-Jun-07 14:32N 41°21' W 072°23'0 0.0
2015-Jun-07 13:32N 41°21' W 072°23'0 0.0
2015-Jun-07 12:32N 41°21' W 072°23'0 0.0
2015-Jun-07 11:32N 41°21' W 072°23'0 0.0
2015-Jun-07 10:32N 41°21' W 072°23'0 0.0
2015-Jun-07 09:32N 41°21' W 072°23'0 0.0
2015-Jun-07 08:32N 41°21' W 072°23'0 0.0
2015-Jun-07 07:32N 41°21' W 072°23'0 0.0
2015-Jun-07 06:32N 41°21' W 072°23'0 0.0
2015-Jun-07 05:32N 41°21' W 072°23'0 0.0
2015-Jun-07 04:32N 41°21' W 072°23'0 0.0
2015-Jun-07 03:32N 41°21' W 072°23'0 0.0
2015-Jun-07 02:32N 41°21' W 072°23'0 0.0
2015-Jun-07 01:32N 41°21' W 072°23'0 0.0
2015-Jun-07 00:32N 41°21' W 072°23'0 0.0
2015-Jun-06 23:32N 41°21' W 072°23'0 0.0
2015-Jun-06 22:32N 41°21' W 072°23'0 0.0
2015-Jun-06 21:32N 41°21' W 072°23'0 0.0
2015-Jun-06 20:32N 41°21' W 072°23'0 0.0
2015-Jun-06 19:32N 41°21' W 072°23'0 0.0
2015-Jun-06 18:32N 41°21' W 072°23'0 0.0
2015-Jun-06 17:32N 41°21' W 072°23'0 0.0
2015-Jun-06 16:32N 41°21' W 072°23'0 0.0
2015-Jun-06 15:32N 41°21' W 072°23'0 0.0
2015-Jun-06 14:32N 41°21' W 072°23'0 0.0
2015-Jun-06 13:32N 41°21' W 072°23'0 0.0
2015-Jun-06 12:32N 41°21' W 072°23'0 0.0
2015-Jun-06 11:32N 41°21' W 072°23'0 0.0
2015-Jun-06 10:32N 41°21' W 072°23'0 0.0
2015-Jun-06 09:32N 41°21' W 072°23'0 0.0
2015-Jun-06 08:32N 41°21' W 072°23'0 0.0
2015-Jun-06 07:32N 41°21' W 072°23'0 0.0
2015-Jun-06 06:32N 41°21' W 072°23'0 0.0
2015-Jun-06 05:32N 41°21' W 072°23'0 0.0
2015-Jun-06 04:32N 41°21' W 072°23'0 0.0
2015-Jun-06 03:32N 41°21' W 072°23'0 0.0
2015-Jun-06 02:32N 41°21' W 072°23'0 0.0
2015-Jun-06 01:32N 41°21' W 072°23'0 0.0
2015-Jun-06 00:32N 41°21' W 072°23'0 0.0
2015-Jun-05 23:32N 41°21' W 072°23'0 0.0
2015-Jun-05 22:32N 41°21' W 072°23'0 0.0
2015-Jun-05 21:32N 41°21' W 072°23'0 0.0
2015-Jun-05 20:32N 41°21' W 072°23'0 0.0
2015-Jun-05 19:32N 41°21' W 072°23'0 0.0
2015-Jun-05 18:32N 41°21' W 072°23'0 0.0
2015-Jun-05 17:32N 41°21' W 072°23'0 0.0
2015-Jun-05 16:32N 41°21' W 072°23'0 0.0
2015-Jun-05 15:32N 41°21' W 072°23'0 0.0
2015-Jun-05 14:32N 41°21' W 072°23'0 0.0
2015-Jun-05 13:32N 41°21' W 072°23'0 0.0
2015-Jun-05 12:32N 41°21' W 072°23'0 0.0
2015-Jun-05 11:32N 41°21' W 072°23'0 0.0
2015-Jun-05 10:32N 41°21' W 072°23'0 0.0
2015-Jun-05 09:32N 41°21' W 072°23'0 0.0
2015-Jun-05 08:32N 41°21' W 072°23'0 0.0
2015-Jun-05 07:32N 41°21' W 072°23'0 0.0
2015-Jun-05 06:32N 41°21' W 072°23'0 0.0
2015-Jun-05 05:32N 41°21' W 072°23'0 0.0
2015-Jun-05 04:32N 41°21' W 072°23'0 0.0
2015-Jun-05 03:32N 41°21' W 072°23'0 0.0
2015-Jun-05 02:32N 41°21' W 072°23'0 0.0
2015-Jun-05 01:32N 41°21' W 072°23'0 0.0
2015-Jun-05 00:32N 41°21' W 072°23'0 0.0
2015-Jun-04 23:32N 41°21' W 072°23'0 0.0
2015-Jun-04 22:32N 41°21' W 072°23'0 0.0
2015-Jun-04 21:32N 41°21' W 072°23'0 0.0
2015-Jun-04 20:32N 41°21' W 072°23'0 0.0
2015-Jun-04 19:32N 41°21' W 072°23'0 0.0
2015-Jun-04 18:32N 41°21' W 072°23'0 0.0
2015-Jun-04 17:32N 41°21' W 072°23'0 0.0
2015-Jun-04 16:32N 41°21' W 072°23'0 0.0
2015-Jun-04 15:32N 41°21' W 072°23'0 0.0
2015-Jun-04 14:32N 41°21' W 072°23'0 0.0
2015-Jun-04 13:32N 41°21' W 072°23'0 0.0
2015-Jun-04 12:32N 41°21' W 072°23'0 0.0
2015-Jun-04 11:32N 41°21' W 072°23'0 0.0
2015-Jun-04 10:32N 41°21' W 072°23'0 0.0
2015-Jun-04 09:29N 41°21' W 072°23'0 0.0
2015-Jun-04 08:32N 41°21' W 072°23'0 0.0
2015-Jun-04 07:32N 41°21' W 072°23'0 0.0
2015-Jun-04 06:32N 41°21' W 072°23'0 0.0
2015-Jun-04 05:32N 41°21' W 072°23'0 0.0
2015-Jun-04 04:32N 41°21' W 072°23'0 0.0
2015-Jun-04 03:32N 41°21' W 072°23'0 0.0
2015-Jun-04 02:32N 41°21' W 072°23'0 0.0
2015-Jun-04 01:32N 41°21' W 072°23'0 0.0
2015-Jun-04 00:32N 41°21' W 072°23'0 0.0
2015-Jun-03 23:32N 41°21' W 072°23'0 0.0
2015-Jun-03 22:32N 41°21' W 072°23'0 0.0
2015-Jun-03 21:32N 41°21' W 072°23'0 0.0
2015-Jun-03 20:32N 41°21' W 072°23'0 0.0
2015-Jun-03 19:32N 41°21' W 072°23'0 0.0
2015-Jun-03 18:32N 41°21' W 072°23'0 0.0
2015-Jun-03 17:32N 41°21' W 072°23'0 0.0
2015-Jun-03 16:32N 41°21' W 072°23'0 0.0
2015-Jun-03 15:32N 41°21' W 072°23'0 0.0
2015-Jun-03 14:32N 41°21' W 072°23'0 0.0
2015-Jun-03 13:32N 41°21' W 072°23'0 0.0
2015-Jun-03 12:32N 41°21' W 072°23'0 0.0
2015-Jun-03 11:32N 41°21' W 072°23'0 0.0
2015-Jun-03 10:32N 41°21' W 072°23'0 0.0
2015-Jun-03 09:32N 41°21' W 072°23'0 0.0
2015-Jun-03 08:32N 41°21' W 072°23'0 0.0
2015-Jun-03 07:32N 41°21' W 072°23'0 0.0
2015-Jun-03 06:32N 41°21' W 072°23'0 0.0
2015-Jun-03 05:32N 41°21' W 072°23'0 0.0
2015-Jun-03 04:32N 41°21' W 072°23'0 0.0
2015-Jun-03 03:32N 41°21' W 072°23'0 0.0
2015-Jun-03 02:32N 41°21' W 072°23'0 0.0
2015-Jun-03 01:32N 41°21' W 072°23'0 0.0
2015-Jun-03 00:32N 41°21' W 072°23'0 0.0
2015-Jun-02 23:32N 41°21' W 072°23'0 0.0
2015-Jun-02 22:32N 41°21' W 072°23'0 0.0
2015-Jun-02 21:32N 41°21' W 072°23'0 0.0
2015-Jun-02 20:32N 41°21' W 072°23'0 0.0
2015-Jun-02 19:32N 41°21' W 072°23'0 0.0
2015-Jun-02 18:32N 41°21' W 072°23'0 0.0
2015-Jun-02 17:32N 41°21' W 072°23'0 0.0
2015-Jun-02 16:32N 41°21' W 072°23'0 0.0
2015-Jun-02 15:32N 41°21' W 072°23'0 0.0
2015-Jun-02 14:32N 41°21' W 072°23'0 0.0
2015-Jun-02 13:32N 41°21' W 072°23'0 0.0
2015-Jun-02 12:32N 41°21' W 072°23'0 0.0
2015-Jun-02 11:32N 41°21' W 072°23'0 0.0
2015-Jun-02 10:32N 41°21' W 072°23'0 0.0
2015-Jun-02 09:32N 41°21' W 072°23'0 0.0
2015-Jun-02 08:32N 41°21' W 072°23'0 0.0
2015-Jun-02 07:32N 41°21' W 072°23'0 0.0
2015-Jun-02 06:32N 41°21' W 072°23'0 0.0
2015-Jun-02 05:32N 41°21' W 072°23'0 0.0
2015-Jun-02 04:32N 41°21' W 072°23'0 0.0
2015-Jun-02 03:32N 41°21' W 072°23'0 0.0
2015-Jun-02 02:32N 41°21' W 072°23'0 0.0
2015-Jun-02 01:32N 41°21' W 072°23'0 0.0
2015-Jun-02 00:32N 41°21' W 072°23'0 0.0
2015-Jun-01 23:32N 41°21' W 072°23'0 0.0
2015-Jun-01 22:32N 41°21' W 072°23'0 0.0
2015-Jun-01 21:32N 41°21' W 072°23'0 0.0
2015-Jun-01 20:32N 41°21' W 072°23'0 0.0
2015-Jun-01 19:32N 41°21' W 072°23'  
Track history (hours):
 
Tides and Currents Weather Stations Pressure Air Temp Water Temp Dewpoint Dewpoint Depression Visibility Wind Speed Wind Dir Waves Ship Positions

Gizmo

Owner: Ellison, Bennett, Camden, ME. More information available from US FCC via Universal Licensing System and Coast Guard Vessel Documentation Center.

Last reported at 2015-Jun-11 18:33 UTC. Time now 2015-Jul-05 04:24 UTC.
Position N 43°53' W 069°19'.
Warning: this ship's position is 23 days out of date.

Length 12 m; draft 1.4 m.

Type: Pleasure craft. MMSI: 367412350.

Date/timePositionNaut miles runAvg speedWind from/ knotsBaromVisibWave heightAir tempDewpointWater temp
2015-Jun-11 18:33N 43°53' W 069°19'9 8.7
2015-Jun-11 17:33N 43°50' W 069°30'9 8.7
2015-Jun-11 16:33N 43°45' W 069°40'9 9.2
2015-Jun-11 15:33N 43°38' W 069°49'11 9.2
2015-Jun-11 14:19N 43°30' W 069°59'7 9.2
2015-Jun-11 13:32N 43°24' W 070°06'9 9.1
2015-Jun-11 12:33N 43°17' W 070°14'9 9.1
2015-Jun-11 11:33N 43°10' W 070°21'9 9.0
2015-Jun-11 10:33N 43°04' W 070°30'7 7.2
2015-Jun-11 09:33N 42°59' W 070°37'0 0.0
2015-Jun-11 08:33N 42°59' W 070°37'0 0.0
2015-Jun-11 07:33N 42°59' W 070°37'0 0.0
2015-Jun-11 06:33N 42°59' W 070°37'0 0.0
2015-Jun-11 05:33N 42°59' W 070°37'0 0.0
2015-Jun-11 04:33N 42°59' W 070°37'0 0.0
2015-Jun-11 03:33N 42°59' W 070°37'0 0.0
2015-Jun-11 02:33N 42°59' W 070°37'0 0.0
2015-Jun-11 01:33N 42°59' W 070°37'0 0.0
2015-Jun-10 20:33N 42°59' W 070°37'0 0.2
2015-Jun-10 19:33N 42°59' W 070°37'8 8.0
2015-Jun-10 18:33N 42°51' W 070°38'8 8.3
2015-Jun-10 17:33N 42°43' W 070°40'6 5.7
2015-Jun-10 16:33N 42°37' W 070°41'1 1.1
2015-Jun-10 15:32N 42°37' W 070°39'15 7.5
2015-Jun-10 13:33N 42°22' W 070°41'8 8.1
2015-Jun-10 12:33N 42°14' W 070°42'16 1.3
2015-Jun-10 00:23N 41°58' W 070°40'0 0.0
2015-Jun-09 23:32N 41°58' W 070°40'0 0.0
2015-Jun-09 22:32N 41°58' W 070°40'0 0.0
2015-Jun-09 21:32N 41°58' W 070°40'0 0.0
2015-Jun-09 20:32N 41°58' W 070°40'0 0.0
2015-Jun-09 19:32N 41°58' W 070°40'0 0.0
2015-Jun-09 18:32N 41°58' W 070°40'0 0.0
2015-Jun-09 17:32N 41°58' W 070°40'0 0.0
2015-Jun-09 16:32N 41°58' W 070°40'13 0.5
2015-Jun-08 15:26N 41°45' W 070°35'26 8.3
2015-Jun-08 12:18N 41°27' W 071°01'7 8.1
2015-Jun-08 11:25N 41°26' W 071°10'7 8.1
2015-Jun-08 10:33N 41°24' W 071°19'8 8.2
2015-Jun-08 09:33N 41°21' W 071°30'1 0.5
2015-Jun-08 08:31N 41°22' W 071°30'0 0.0
2015-Jun-08 07:31N 41°22' W 071°30'0 0.0
2015-Jun-08 06:31N 41°22' W 071°30'0 0.0
2015-Jun-08 05:10N 41°22' W 071°30'0 0.0
2015-Jun-08 04:31N 41°22' W 071°30'0 0.0
2015-Jun-08 03:31N 41°22' W 071°30'0 0.0
2015-Jun-08 02:28N 41°22' W 071°30'0 0.0
2015-Jun-08 01:31N 41°22' W 071°30'0 0.0
2015-Jun-08 00:31N 41°22' W 071°30'0 0.0
2015-Jun-07 23:31N 41°22' W 071°30'7 7.4
2015-Jun-07 22:33N 41°20' W 071°40'9 8.9
2015-Jun-07 21:33N 41°18' W 071°51'9 9.4
2015-Jun-07 20:33N 41°17' W 072°04'8 8.1
2015-Jun-07 19:33N 41°15' W 072°14'6 5.7
2015-Jun-07 18:33N 41°18' W 072°21'4 3.6
2015-Jun-07 17:32N 41°21' W 072°23'0 0.0
2015-Jun-07 16:32N 41°21' W 072°23'0 0.0
2015-Jun-07 15:32N 41°21' W 072°23'0 0.0
2015-Jun-07 14:32N 41°21' W 072°23'0 0.0
2015-Jun-07 13:32N 41°21' W 072°23'0 0.0
2015-Jun-07 12:32N 41°21' W 072°23'0 0.0
2015-Jun-07 11:32N 41°21' W 072°23'0 0.0
2015-Jun-07 10:32N 41°21' W 072°23'0 0.0
2015-Jun-07 09:32N 41°21' W 072°23'0 0.0
2015-Jun-07 08:32N 41°21' W 072°23'0 0.0
2015-Jun-07 07:32N 41°21' W 072°23'0 0.0
2015-Jun-07 06:32N 41°21' W 072°23'0 0.0
2015-Jun-07 05:32N 41°21' W 072°23'0 0.0
2015-Jun-07 04:32N 41°21' W 072°23'0 0.0
2015-Jun-07 03:32N 41°21' W 072°23'0 0.0
2015-Jun-07 02:32N 41°21' W 072°23'0 0.0
2015-Jun-07 01:32N 41°21' W 072°23'0 0.0
2015-Jun-07 00:32N 41°21' W 072°23'0 0.0
2015-Jun-06 23:32N 41°21' W 072°23'0 0.0
2015-Jun-06 22:32N 41°21' W 072°23'0 0.0
2015-Jun-06 21:32N 41°21' W 072°23'0 0.0
2015-Jun-06 20:32N 41°21' W 072°23'0 0.0
2015-Jun-06 19:32N 41°21' W 072°23'0 0.0
2015-Jun-06 18:32N 41°21' W 072°23'0 0.0
2015-Jun-06 17:32N 41°21' W 072°23'0 0.0
2015-Jun-06 16:32N 41°21' W 072°23'0 0.0
2015-Jun-06 15:32N 41°21' W 072°23'0 0.0
2015-Jun-06 14:32N 41°21' W 072°23'0 0.0
2015-Jun-06 13:32N 41°21' W 072°23'0 0.0
2015-Jun-06 12:32N 41°21' W 072°23'0 0.0
2015-Jun-06 11:32N 41°21' W 072°23'0 0.0
2015-Jun-06 10:32N 41°21' W 072°23'0 0.0
2015-Jun-06 09:32N 41°21' W 072°23'0 0.0
2015-Jun-06 08:32N 41°21' W 072°23'0 0.0
2015-Jun-06 07:32N 41°21' W 072°23'0 0.0
2015-Jun-06 06:32N 41°21' W 072°23'0 0.0
2015-Jun-06 05:32N 41°21' W 072°23'0 0.0
2015-Jun-06 04:32N 41°21' W 072°23'0 0.0
2015-Jun-06 03:32N 41°21' W 072°23'0 0.0
2015-Jun-06 02:32N 41°21' W 072°23'0 0.0
2015-Jun-06 01:32N 41°21' W 072°23'0 0.0
2015-Jun-06 00:32N 41°21' W 072°23'0 0.0
2015-Jun-05 23:32N 41°21' W 072°23'0 0.0
2015-Jun-05 22:32N 41°21' W 072°23'0 0.0
2015-Jun-05 21:32N 41°21' W 072°23'0 0.0
2015-Jun-05 20:32N 41°21' W 072°23'0 0.0
2015-Jun-05 19:32N 41°21' W 072°23'0 0.0
2015-Jun-05 18:32N 41°21' W 072°23'0 0.0
2015-Jun-05 17:32N 41°21' W 072°23'0 0.0
2015-Jun-05 16:32N 41°21' W 072°23'0 0.0
2015-Jun-05 15:32N 41°21' W 072°23'0 0.0
2015-Jun-05 14:32N 41°21' W 072°23'0 0.0
2015-Jun-05 13:32N 41°21' W 072°23'0 0.0
2015-Jun-05 12:32N 41°21' W 072°23'0 0.0
2015-Jun-05 11:32N 41°21' W 072°23'0 0.0
2015-Jun-05 10:32N 41°21' W 072°23'0 0.0
2015-Jun-05 09:32N 41°21' W 072°23'0 0.0
2015-Jun-05 08:32N 41°21' W 072°23'0 0.0
2015-Jun-05 07:32N 41°21' W 072°23'0 0.0
2015-Jun-05 06:32N 41°21' W 072°23'0 0.0
2015-Jun-05 05:32N 41°21' W 072°23'0 0.0
2015-Jun-05 04:32N 41°21' W 072°23'0 0.0
2015-Jun-05 03:32N 41°21' W 072°23'0 0.0
2015-Jun-05 02:32N 41°21' W 072°23'0 0.0
2015-Jun-05 01:32N 41°21' W 072°23'0 0.0
2015-Jun-05 00:32N 41°21' W 072°23'0 0.0
2015-Jun-04 23:32N 41°21' W 072°23'0 0.0
2015-Jun-04 22:32N 41°21' W 072°23'0 0.0
2015-Jun-04 21:32N 41°21' W 072°23'0 0.0
2015-Jun-04 20:32N 41°21' W 072°23'0 0.0
2015-Jun-04 19:32N 41°21' W 072°23'0 0.0
2015-Jun-04 18:32N 41°21' W 072°23'0 0.0
2015-Jun-04 17:32N 41°21' W 072°23'0 0.0
2015-Jun-04 16:32N 41°21' W 072°23'0 0.0
2015-Jun-04 15:32N 41°21' W 072°23'0 0.0
2015-Jun-04 14:32N 41°21' W 072°23'0 0.0
2015-Jun-04 13:32N 41°21' W 072°23'0 0.0
2015-Jun-04 12:32N 41°21' W 072°23'0 0.0
2015-Jun-04 11:32N 41°21' W 072°23'0 0.0
2015-Jun-04 10:32N 41°21' W 072°23'0 0.0
2015-Jun-04 09:29N 41°21' W 072°23'0 0.0
2015-Jun-04 08:32N 41°21' W 072°23'0 0.0
2015-Jun-04 07:32N 41°21' W 072°23'0 0.0
2015-Jun-04 06:32N 41°21' W 072°23'0 0.0
2015-Jun-04 05:32N 41°21' W 072°23'0 0.0
2015-Jun-04 04:32N 41°21' W 072°23'0 0.0
2015-Jun-04 03:32N 41°21' W 072°23'0 0.0
2015-Jun-04 02:32N 41°21' W 072°23'0 0.0
2015-Jun-04 01:32N 41°21' W 072°23'0 0.0
2015-Jun-04 00:32N 41°21' W 072°23'0 0.0
2015-Jun-03 23:32N 41°21' W 072°23'0 0.0
2015-Jun-03 22:32N 41°21' W 072°23'0 0.0
2015-Jun-03 21:32N 41°21' W 072°23'0 0.0
2015-Jun-03 20:32N 41°21' W 072°23'0 0.0
2015-Jun-03 19:32N 41°21' W 072°23'0 0.0
2015-Jun-03 18:32N 41°21' W 072°23'0 0.0
2015-Jun-03 17:32N 41°21' W 072°23'0 0.0
2015-Jun-03 16:32N 41°21' W 072°23'0 0.0
2015-Jun-03 15:32N 41°21' W 072°23'0 0.0
2015-Jun-03 14:32N 41°21' W 072°23'0 0.0
2015-Jun-03 13:32N 41°21' W 072°23'0 0.0
2015-Jun-03 12:32N 41°21' W 072°23'0 0.0
2015-Jun-03 11:32N 41°21' W 072°23'0 0.0
2015-Jun-03 10:32N 41°21' W 072°23'0 0.0
2015-Jun-03 09:32N 41°21' W 072°23'0 0.0
2015-Jun-03 08:32N 41°21' W 072°23'0 0.0
2015-Jun-03 07:32N 41°21' W 072°23'0 0.0
2015-Jun-03 06:32N 41°21' W 072°23'0 0.0
2015-Jun-03 05:32N 41°21' W 072°23'0 0.0
2015-Jun-03 04:32N 41°21' W 072°23'0 0.0
2015-Jun-03 03:32N 41°21' W 072°23'0 0.0
2015-Jun-03 02:32N 41°21' W 072°23'0 0.0
2015-Jun-03 01:32N 41°21' W 072°23'0 0.0
2015-Jun-03 00:32N 41°21' W 072°23'0 0.0
2015-Jun-02 23:32N 41°21' W 072°23'0 0.0
2015-Jun-02 22:32N 41°21' W 072°23'0 0.0
2015-Jun-02 21:32N 41°21' W 072°23'0 0.0
2015-Jun-02 20:32N 41°21' W 072°23'0 0.0
2015-Jun-02 19:32N 41°21' W 072°23'0 0.0
2015-Jun-02 18:32N 41°21' W 072°23'0 0.0
2015-Jun-02 17:32N 41°21' W 072°23'0 0.0
2015-Jun-02 16:32N 41°21' W 072°23'0 0.0
2015-Jun-02 15:32N 41°21' W 072°23'0 0.0
2015-Jun-02 14:32N 41°21' W 072°23'0 0.0
2015-Jun-02 13:32N 41°21' W 072°23'0 0.0
2015-Jun-02 12:32N 41°21' W 072°23'0 0.0
2015-Jun-02 11:32N 41°21' W 072°23'0 0.0
2015-Jun-02 10:32N 41°21' W 072°23'0 0.0
2015-Jun-02 09:32N 41°21' W 072°23'0 0.0
2015-Jun-02 08:32N 41°21' W 072°23'0 0.0
2015-Jun-02 07:32N 41°21' W 072°23'0 0.0
2015-Jun-02 06:32N 41°21' W 072°23'0 0.0
2015-Jun-02 05:32N 41°21' W 072°23'0 0.0
2015-Jun-02 04:32N 41°21' W 072°23'0 0.0
2015-Jun-02 03:32N 41°21' W 072°23'0 0.0
2015-Jun-02 02:32N 41°21' W 072°23'0 0.0
2015-Jun-02 01:32N 41°21' W 072°23'0 0.0
2015-Jun-02 00:32N 41°21' W 072°23'0 0.0
2015-Jun-01 23:32N 41°21' W 072°23'0 0.0
2015-Jun-01 22:32N 41°21' W 072°23'0 0.0
2015-Jun-01 21:32N 41°21' W 072°23'0 0.0
2015-Jun-01 20:32N 41°21' W 072°23'0 0.0
2015-Jun-01 19:32N 41°21' W 072°23'  

Dump ship's entire track history